sensor_id;sensor_type;location;lat;lon;timestamp;P1;durP1;ratioP1;P2;durP2;ratioP2
15022;SDS011;19850;49.576;10.880;2022-12-17T00:03:08;30.23;;;20.37;;
15022;SDS011;19850;49.576;10.880;2022-12-17T00:07:29;28.37;;;19.60;;
15022;SDS011;19850;49.576;10.880;2022-12-17T00:11:50;28.03;;;18.97;;
15022;SDS011;19850;49.576;10.880;2022-12-17T00:16:10;29.53;;;20.00;;
15022;SDS011;19850;49.576;10.880;2022-12-17T00:20:32;28.93;;;19.00;;
15022;SDS011;19850;49.576;10.880;2022-12-17T00:24:52;27.57;;;18.90;;
15022;SDS011;19850;49.576;10.880;2022-12-17T00:29:12;27.60;;;19.33;;
15022;SDS011;19850;49.576;10.880;2022-12-17T00:33:33;29.93;;;18.70;;
15022;SDS011;19850;49.576;10.880;2022-12-17T00:37:55;26.63;;;18.73;;
15022;SDS011;19850;49.576;10.880;2022-12-17T00:42:15;27.43;;;18.47;;
15022;SDS011;19850;49.576;10.880;2022-12-17T00:46:35;29.37;;;18.73;;
15022;SDS011;19850;49.576;10.880;2022-12-17T00:50:56;28.83;;;18.73;;
15022;SDS011;19850;49.576;10.880;2022-12-17T00:55:18;27.27;;;17.57;;
15022;SDS011;19850;49.576;10.880;2022-12-17T00:59:38;27.13;;;17.77;;
15022;SDS011;19850;49.576;10.880;2022-12-17T01:04:13;28.47;;;18.80;;
15022;SDS011;19850;49.576;10.880;2022-12-17T01:08:33;27.40;;;17.73;;
15022;SDS011;19850;49.576;10.880;2022-12-17T01:12:58;27.93;;;17.97;;
15022;SDS011;19850;49.576;10.880;2022-12-17T01:17:18;30.90;;;18.37;;
15022;SDS011;19850;49.576;10.880;2022-12-17T01:21:38;29.80;;;17.73;;
15022;SDS011;19850;49.576;10.880;2022-12-17T01:25:58;26.67;;;17.80;;
15022;SDS011;19850;49.576;10.880;2022-12-17T01:30:20;25.87;;;17.70;;
15022;SDS011;19850;49.576;10.880;2022-12-17T01:34:40;28.27;;;18.67;;
15022;SDS011;19850;49.576;10.880;2022-12-17T01:39:01;30.23;;;18.37;;
15022;SDS011;19850;49.576;10.880;2022-12-17T01:48:02;26.33;;;17.70;;
15022;SDS011;19850;49.576;10.880;2022-12-17T01:52:22;24.67;;;16.80;;
15022;SDS011;19850;49.576;10.880;2022-12-17T01:56:43;24.37;;;16.57;;
15022;SDS011;19850;49.576;10.880;2022-12-17T02:01:03;26.37;;;17.30;;
15022;SDS011;19850;49.576;10.880;2022-12-17T02:05:27;27.33;;;18.00;;
15022;SDS011;19850;49.576;10.880;2022-12-17T02:09:54;26.93;;;17.33;;
15022;SDS011;19850;49.576;10.880;2022-12-17T02:14:21;26.87;;;17.30;;
15022;SDS011;19850;49.576;10.880;2022-12-17T02:18:47;27.33;;;17.30;;
15022;SDS011;19850;49.576;10.880;2022-12-17T02:23:17;27.40;;;17.17;;
15022;SDS011;19850;49.576;10.880;2022-12-17T02:27:51;24.83;;;16.73;;
15022;SDS011;19850;49.576;10.880;2022-12-17T02:32:12;27.87;;;17.63;;
15022;SDS011;19850;49.576;10.880;2022-12-17T02:36:34;27.03;;;17.87;;
15022;SDS011;19850;49.576;10.880;2022-12-17T02:40:54;26.10;;;16.63;;
15022;SDS011;19850;49.576;10.880;2022-12-17T02:45:16;25.30;;;16.13;;
15022;SDS011;19850;49.576;10.880;2022-12-17T02:49:37;26.50;;;16.93;;
15022;SDS011;19850;49.576;10.880;2022-12-17T02:54:00;26.60;;;16.60;;
15022;SDS011;19850;49.576;10.880;2022-12-17T02:58:22;24.50;;;15.23;;
15022;SDS011;19850;49.576;10.880;2022-12-17T03:02:44;23.83;;;16.23;;
15022;SDS011;19850;49.576;10.880;2022-12-17T03:07:04;26.23;;;16.27;;
15022;SDS011;19850;49.576;10.880;2022-12-17T03:11:26;26.37;;;17.70;;
15022;SDS011;19850;49.576;10.880;2022-12-17T03:15:47;24.40;;;16.20;;
15022;SDS011;19850;49.576;10.880;2022-12-17T03:20:09;24.57;;;15.70;;
15022;SDS011;19850;49.576;10.880;2022-12-17T03:24:30;24.43;;;16.13;;
15022;SDS011;19850;49.576;10.880;2022-12-17T03:28:50;21.57;;;14.83;;
15022;SDS011;19850;49.576;10.880;2022-12-17T03:33:10;19.93;;;14.17;;
15022;SDS011;19850;49.576;10.880;2022-12-17T03:37:32;22.37;;;14.63;;
15022;SDS011;19850;49.576;10.880;2022-12-17T03:41:52;21.07;;;14.07;;
15022;SDS011;19850;49.576;10.880;2022-12-17T03:46:13;21.97;;;13.77;;
15022;SDS011;19850;49.576;10.880;2022-12-17T03:50:33;23.60;;;14.17;;
15022;SDS011;19850;49.576;10.880;2022-12-17T03:54:55;22.07;;;13.87;;
15022;SDS011;19850;49.576;10.880;2022-12-17T03:59:15;20.17;;;14.17;;
15022;SDS011;19850;49.576;10.880;2022-12-17T04:03:35;24.07;;;15.17;;
15022;SDS011;19850;49.576;10.880;2022-12-17T04:07:55;23.43;;;14.87;;
15022;SDS011;19850;49.576;10.880;2022-12-17T04:12:17;21.60;;;14.03;;
15022;SDS011;19850;49.576;10.880;2022-12-17T04:16:37;23.03;;;14.47;;
15022;SDS011;19850;49.576;10.880;2022-12-17T04:20:58;20.23;;;14.17;;
15022;SDS011;19850;49.576;10.880;2022-12-17T04:25:18;22.37;;;13.80;;
15022;SDS011;19850;49.576;10.880;2022-12-17T04:29:40;21.07;;;14.17;;
15022;SDS011;19850;49.576;10.880;2022-12-17T04:34:00;19.90;;;13.30;;
15022;SDS011;19850;49.576;10.880;2022-12-17T04:38:20;21.67;;;13.57;;
15022;SDS011;19850;49.576;10.880;2022-12-17T04:42:41;21.37;;;13.73;;
15022;SDS011;19850;49.576;10.880;2022-12-17T04:47:02;21.27;;;13.77;;
15022;SDS011;19850;49.576;10.880;2022-12-17T04:51:23;23.90;;;15.03;;
15022;SDS011;19850;49.576;10.880;2022-12-17T04:55:43;22.07;;;14.37;;
15022;SDS011;19850;49.576;10.880;2022-12-17T05:00:04;20.10;;;13.23;;
15022;SDS011;19850;49.576;10.880;2022-12-17T05:04:26;21.50;;;14.30;;
15022;SDS011;19850;49.576;10.880;2022-12-17T05:08:46;23.97;;;14.47;;
15022;SDS011;19850;49.576;10.880;2022-12-17T05:13:07;22.43;;;14.40;;
15022;SDS011;19850;49.576;10.880;2022-12-17T05:17:28;23.40;;;14.67;;
15022;SDS011;19850;49.576;10.880;2022-12-17T05:21:50;22.13;;;14.27;;
15022;SDS011;19850;49.576;10.880;2022-12-17T05:26:20;19.40;;;13.50;;
15022;SDS011;19850;49.576;10.880;2022-12-17T05:30:41;22.73;;;13.83;;
15022;SDS011;19850;49.576;10.880;2022-12-17T05:35:01;23.73;;;13.97;;
15022;SDS011;19850;49.576;10.880;2022-12-17T05:39:23;23.60;;;14.10;;
15022;SDS011;19850;49.576;10.880;2022-12-17T05:43:43;22.97;;;13.50;;
15022;SDS011;19850;49.576;10.880;2022-12-17T05:48:04;22.90;;;14.90;;
15022;SDS011;19850;49.576;10.880;2022-12-17T05:52:24;26.53;;;15.77;;
15022;SDS011;19850;49.576;10.880;2022-12-17T05:56:46;25.90;;;15.53;;
15022;SDS011;19850;49.576;10.880;2022-12-17T06:01:06;22.20;;;14.63;;
15022;SDS011;19850;49.576;10.880;2022-12-17T06:05:26;19.00;;;13.33;;
15022;SDS011;19850;49.576;10.880;2022-12-17T06:09:47;20.60;;;13.40;;
15022;SDS011;19850;49.576;10.880;2022-12-17T06:14:09;23.10;;;13.77;;
15022;SDS011;19850;49.576;10.880;2022-12-17T06:18:43;25.97;;;15.10;;
15022;SDS011;19850;49.576;10.880;2022-12-17T06:23:05;22.13;;;14.27;;
15022;SDS011;19850;49.576;10.880;2022-12-17T06:27:26;21.10;;;14.73;;
15022;SDS011;19850;49.576;10.880;2022-12-17T06:31:47;21.80;;;14.60;;
15022;SDS011;19850;49.576;10.880;2022-12-17T06:36:08;19.57;;;13.53;;
15022;SDS011;19850;49.576;10.880;2022-12-17T06:40:28;22.40;;;14.43;;
15022;SDS011;19850;49.576;10.880;2022-12-17T06:44:48;21.83;;;13.70;;
15022;SDS011;19850;49.576;10.880;2022-12-17T06:49:10;20.40;;;13.43;;
15022;SDS011;19850;49.576;10.880;2022-12-17T06:53:30;20.97;;;14.83;;
15022;SDS011;19850;49.576;10.880;2022-12-17T06:57:54;22.17;;;15.27;;
15022;SDS011;19850;49.576;10.880;2022-12-17T07:02:14;25.50;;;14.90;;
15022;SDS011;19850;49.576;10.880;2022-12-17T07:06:37;22.87;;;15.33;;
15022;SDS011;19850;49.576;10.880;2022-12-17T07:10:57;24.30;;;15.93;;
15022;SDS011;19850;49.576;10.880;2022-12-17T07:15:17;23.17;;;14.13;;
15022;SDS011;19850;49.576;10.880;2022-12-17T07:19:38;22.40;;;14.40;;
15022;SDS011;19850;49.576;10.880;2022-12-17T07:24:00;21.83;;;14.60;;
15022;SDS011;19850;49.576;10.880;2022-12-17T07:28:19;24.67;;;15.37;;
15022;SDS011;19850;49.576;10.880;2022-12-17T07:32:40;22.13;;;14.67;;
15022;SDS011;19850;49.576;10.880;2022-12-17T07:37:00;23.07;;;15.63;;
15022;SDS011;19850;49.576;10.880;2022-12-17T07:41:22;22.63;;;14.77;;
15022;SDS011;19850;49.576;10.880;2022-12-17T07:45:42;21.20;;;14.87;;
15022;SDS011;19850;49.576;10.880;2022-12-17T07:50:02;23.20;;;14.97;;
15022;SDS011;19850;49.576;10.880;2022-12-17T07:54:23;21.27;;;13.97;;
15022;SDS011;19850;49.576;10.880;2022-12-17T07:58:45;23.00;;;14.93;;
15022;SDS011;19850;49.576;10.880;2022-12-17T08:03:05;22.10;;;14.50;;
15022;SDS011;19850;49.576;10.880;2022-12-17T08:07:25;20.80;;;14.40;;
15022;SDS011;19850;49.576;10.880;2022-12-17T08:11:46;25.97;;;16.07;;
15022;SDS011;19850;49.576;10.880;2022-12-17T08:16:08;25.83;;;16.40;;
15022;SDS011;19850;49.576;10.880;2022-12-17T08:20:30;26.33;;;15.87;;
15022;SDS011;19850;49.576;10.880;2022-12-17T08:24:59;24.40;;;16.40;;
15022;SDS011;19850;49.576;10.880;2022-12-17T08:29:19;25.93;;;16.93;;
15022;SDS011;19850;49.576;10.880;2022-12-17T08:33:40;24.90;;;16.80;;
15022;SDS011;19850;49.576;10.880;2022-12-17T08:38:07;27.57;;;17.27;;
15022;SDS011;19850;49.576;10.880;2022-12-17T08:42:28;27.27;;;17.73;;
15022;SDS011;19850;49.576;10.880;2022-12-17T08:46:48;28.37;;;18.43;;
15022;SDS011;19850;49.576;10.880;2022-12-17T08:51:10;28.37;;;18.30;;
15022;SDS011;19850;49.576;10.880;2022-12-17T08:55:30;24.37;;;17.10;;
15022;SDS011;19850;49.576;10.880;2022-12-17T08:59:50;29.70;;;17.90;;
15022;SDS011;19850;49.576;10.880;2022-12-17T09:04:10;28.97;;;18.60;;
15022;SDS011;19850;49.576;10.880;2022-12-17T09:08:47;29.07;;;18.47;;
15022;SDS011;19850;49.576;10.880;2022-12-17T09:13:07;32.03;;;19.30;;
15022;SDS011;19850;49.576;10.880;2022-12-17T09:17:27;31.97;;;20.23;;
15022;SDS011;19850;49.576;10.880;2022-12-17T09:21:47;28.43;;;19.00;;
15022;SDS011;19850;49.576;10.880;2022-12-17T09:26:09;31.20;;;20.77;;
15022;SDS011;19850;49.576;10.880;2022-12-17T09:30:29;32.13;;;20.37;;
15022;SDS011;19850;49.576;10.880;2022-12-17T09:34:49;28.30;;;18.47;;
15022;SDS011;19850;49.576;10.880;2022-12-17T09:39:12;31.10;;;20.47;;
15022;SDS011;19850;49.576;10.880;2022-12-17T09:43:35;27.03;;;17.63;;
15022;SDS011;19850;49.576;10.880;2022-12-17T09:48:04;28.17;;;18.27;;
15022;SDS011;19850;49.576;10.880;2022-12-17T09:52:33;28.63;;;18.97;;
15022;SDS011;19850;49.576;10.880;2022-12-17T09:56:55;28.33;;;19.07;;
15022;SDS011;19850;49.576;10.880;2022-12-17T10:01:18;33.97;;;21.80;;
15022;SDS011;19850;49.576;10.880;2022-12-17T10:05:39;31.53;;;19.43;;
15022;SDS011;19850;49.576;10.880;2022-12-17T10:10:00;35.67;;;21.80;;
15022;SDS011;19850;49.576;10.880;2022-12-17T10:14:30;27.03;;;18.43;;
15022;SDS011;19850;49.576;10.880;2022-12-17T10:18:51;29.23;;;19.77;;
15022;SDS011;19850;49.576;10.880;2022-12-17T10:23:21;33.10;;;22.33;;
15022;SDS011;19850;49.576;10.880;2022-12-17T10:27:41;32.30;;;21.73;;
15022;SDS011;19850;49.576;10.880;2022-12-17T10:32:07;31.27;;;21.73;;
15022;SDS011;19850;49.576;10.880;2022-12-17T10:36:30;33.83;;;22.10;;
15022;SDS011;19850;49.576;10.880;2022-12-17T10:40:50;31.87;;;21.53;;
15022;SDS011;19850;49.576;10.880;2022-12-17T10:45:18;33.97;;;22.90;;
15022;SDS011;19850;49.576;10.880;2022-12-17T10:49:42;32.33;;;21.63;;
15022;SDS011;19850;49.576;10.880;2022-12-17T10:54:07;31.73;;;21.70;;
15022;SDS011;19850;49.576;10.880;2022-12-17T10:58:29;28.80;;;20.97;;
15022;SDS011;19850;49.576;10.880;2022-12-17T11:02:50;35.20;;;24.93;;
15022;SDS011;19850;49.576;10.880;2022-12-17T11:07:11;33.27;;;22.27;;
15022;SDS011;19850;49.576;10.880;2022-12-17T11:11:36;32.90;;;22.53;;
15022;SDS011;19850;49.576;10.880;2022-12-17T11:15:57;32.13;;;22.03;;
15022;SDS011;19850;49.576;10.880;2022-12-17T11:20:20;28.20;;;17.70;;
15022;SDS011;19850;49.576;10.880;2022-12-17T11:24:42;30.13;;;20.13;;
15022;SDS011;19850;49.576;10.880;2022-12-17T11:29:06;34.00;;;23.50;;
15022;SDS011;19850;49.576;10.880;2022-12-17T11:33:29;33.93;;;24.73;;
15022;SDS011;19850;49.576;10.880;2022-12-17T11:37:54;41.60;;;29.47;;
15022;SDS011;19850;49.576;10.880;2022-12-17T11:42:21;32.10;;;24.20;;
15022;SDS011;19850;49.576;10.880;2022-12-17T11:47:00;35.33;;;25.67;;
15022;SDS011;19850;49.576;10.880;2022-12-17T11:51:26;37.53;;;26.27;;
15022;SDS011;19850;49.576;10.880;2022-12-17T11:55:53;36.20;;;26.00;;
15022;SDS011;19850;49.576;10.880;2022-12-17T12:00:16;35.27;;;25.53;;
15022;SDS011;19850;49.576;10.880;2022-12-17T12:04:45;38.13;;;26.47;;
15022;SDS011;19850;49.576;10.880;2022-12-17T12:09:23;39.83;;;26.93;;
15022;SDS011;19850;49.576;10.880;2022-12-17T12:13:48;41.53;;;29.83;;
15022;SDS011;19850;49.576;10.880;2022-12-17T12:18:13;38.13;;;26.57;;
15022;SDS011;19850;49.576;10.880;2022-12-17T12:22:40;41.37;;;27.70;;
15022;SDS011;19850;49.576;10.880;2022-12-17T12:27:07;59.47;;;35.63;;
15022;SDS011;19850;49.576;10.880;2022-12-17T12:31:49;42.27;;;27.80;;
15022;SDS011;19850;49.576;10.880;2022-12-17T12:36:13;38.27;;;27.43;;
15022;SDS011;19850;49.576;10.880;2022-12-17T12:40:37;37.27;;;25.63;;
15022;SDS011;19850;49.576;10.880;2022-12-17T12:45:03;39.50;;;27.23;;
15022;SDS011;19850;49.576;10.880;2022-12-17T12:49:30;38.33;;;27.23;;
15022;SDS011;19850;49.576;10.880;2022-12-17T12:53:56;40.37;;;28.50;;
15022;SDS011;19850;49.576;10.880;2022-12-17T12:58:26;40.50;;;27.13;;
15022;SDS011;19850;49.576;10.880;2022-12-17T13:02:48;42.70;;;28.63;;
15022;SDS011;19850;49.576;10.880;2022-12-17T13:07:17;42.53;;;27.80;;
15022;SDS011;19850;49.576;10.880;2022-12-17T13:11:26;41.43;;;29.17;;
15022;SDS011;19850;49.576;10.880;2022-12-17T13:15:34;43.83;;;28.50;;
15022;SDS011;19850;49.576;10.880;2022-12-17T13:19:38;41.47;;;27.43;;
15022;SDS011;19850;49.576;10.880;2022-12-17T13:23:42;43.40;;;28.90;;
15022;SDS011;19850;49.576;10.880;2022-12-17T13:27:45;41.80;;;29.43;;
15022;SDS011;19850;49.576;10.880;2022-12-17T13:32:04;42.20;;;28.93;;
15022;SDS011;19850;49.576;10.880;2022-12-17T13:36:11;41.93;;;28.93;;
15022;SDS011;19850;49.576;10.880;2022-12-17T13:40:24;40.40;;;27.30;;
15022;SDS011;19850;49.576;10.880;2022-12-17T13:44:34;42.63;;;28.37;;
15022;SDS011;19850;49.576;10.880;2022-12-17T13:48:41;38.33;;;27.27;;
15022;SDS011;19850;49.576;10.880;2022-12-17T13:52:44;39.30;;;27.83;;
15022;SDS011;19850;49.576;10.880;2022-12-17T13:56:47;39.23;;;27.70;;
15022;SDS011;19850;49.576;10.880;2022-12-17T14:00:50;39.27;;;27.67;;
15022;SDS011;19850;49.576;10.880;2022-12-17T14:04:55;38.90;;;27.33;;
15022;SDS011;19850;49.576;10.880;2022-12-17T14:09:04;37.50;;;26.93;;
15022;SDS011;19850;49.576;10.880;2022-12-17T14:13:07;45.43;;;30.43;;
15022;SDS011;19850;49.576;10.880;2022-12-17T14:17:18;46.90;;;31.43;;
15022;SDS011;19850;49.576;10.880;2022-12-17T14:21:23;48.80;;;33.30;;
15022;SDS011;19850;49.576;10.880;2022-12-17T14:25:28;46.67;;;32.50;;
15022;SDS011;19850;49.576;10.880;2022-12-17T14:29:31;43.13;;;29.53;;
15022;SDS011;19850;49.576;10.880;2022-12-17T14:33:35;47.73;;;31.67;;
15022;SDS011;19850;49.576;10.880;2022-12-17T14:37:40;50.97;;;33.07;;
15022;SDS011;19850;49.576;10.880;2022-12-17T14:41:48;59.60;;;35.87;;
15022;SDS011;19850;49.576;10.880;2022-12-17T14:46:09;53.90;;;31.57;;
15022;SDS011;19850;49.576;10.880;2022-12-17T14:50:24;52.33;;;33.67;;
15022;SDS011;19850;49.576;10.880;2022-12-17T14:54:30;55.17;;;35.57;;
15022;SDS011;19850;49.576;10.880;2022-12-17T14:58:43;67.90;;;39.60;;
15022;SDS011;19850;49.576;10.880;2022-12-17T15:02:48;54.73;;;35.40;;
15022;SDS011;19850;49.576;10.880;2022-12-17T15:06:53;57.77;;;35.07;;
15022;SDS011;19850;49.576;10.880;2022-12-17T15:10:57;49.27;;;33.17;;
15022;SDS011;19850;49.576;10.880;2022-12-17T15:15:00;50.80;;;33.00;;
15022;SDS011;19850;49.576;10.880;2022-12-17T15:19:03;48.87;;;33.17;;
15022;SDS011;19850;49.576;10.880;2022-12-17T15:23:08;53.70;;;33.50;;
15022;SDS011;19850;49.576;10.880;2022-12-17T15:27:16;52.57;;;32.77;;
15022;SDS011;19850;49.576;10.880;2022-12-17T15:31:18;56.47;;;35.07;;
15022;SDS011;19850;49.576;10.880;2022-12-17T15:35:26;76.20;;;41.13;;
15022;SDS011;19850;49.576;10.880;2022-12-17T15:39:29;71.37;;;39.40;;
15022;SDS011;19850;49.576;10.880;2022-12-17T15:43:33;64.80;;;38.30;;
15022;SDS011;19850;49.576;10.880;2022-12-17T15:47:36;59.83;;;36.63;;
15022;SDS011;19850;49.576;10.880;2022-12-17T15:51:39;48.43;;;34.03;;
15022;SDS011;19850;49.576;10.880;2022-12-17T15:55:41;53.53;;;37.30;;
15022;SDS011;19850;49.576;10.880;2022-12-17T15:59:46;55.53;;;37.47;;
15022;SDS011;19850;49.576;10.880;2022-12-17T16:03:49;51.77;;;37.80;;
15022;SDS011;19850;49.576;10.880;2022-12-17T16:07:52;52.97;;;36.47;;
15022;SDS011;19850;49.576;10.880;2022-12-17T16:11:59;49.37;;;34.60;;
15022;SDS011;19850;49.576;10.880;2022-12-17T16:16:03;52.77;;;36.67;;
15022;SDS011;19850;49.576;10.880;2022-12-17T16:20:07;50.73;;;35.33;;
15022;SDS011;19850;49.576;10.880;2022-12-17T16:24:10;54.10;;;36.63;;
15022;SDS011;19850;49.576;10.880;2022-12-17T16:28:14;63.80;;;40.70;;
15022;SDS011;19850;49.576;10.880;2022-12-17T16:32:19;57.20;;;46.53;;
15022;SDS011;19850;49.576;10.880;2022-12-17T16:36:23;71.10;;;43.90;;
15022;SDS011;19850;49.576;10.880;2022-12-17T16:40:29;60.87;;;38.90;;
15022;SDS011;19850;49.576;10.880;2022-12-17T16:44:32;74.90;;;46.50;;
15022;SDS011;19850;49.576;10.880;2022-12-17T16:48:36;54.37;;;40.47;;
15022;SDS011;19850;49.576;10.880;2022-12-17T16:52:41;40.87;;;28.77;;
15022;SDS011;19850;49.576;10.880;2022-12-17T16:56:44;41.40;;;26.83;;
15022;SDS011;19850;49.576;10.880;2022-12-17T17:00:52;37.60;;;25.40;;
15022;SDS011;19850;49.576;10.880;2022-12-17T17:04:56;37.93;;;25.57;;
15022;SDS011;19850;49.576;10.880;2022-12-17T17:09:01;40.67;;;26.67;;
15022;SDS011;19850;49.576;10.880;2022-12-17T17:13:04;45.70;;;35.63;;
15022;SDS011;19850;49.576;10.880;2022-12-17T17:17:07;51.00;;;37.30;;
15022;SDS011;19850;49.576;10.880;2022-12-17T17:25:34;58.97;;;34.20;;
15022;SDS011;19850;49.576;10.880;2022-12-17T17:29:57;51.27;;;33.00;;
15022;SDS011;19850;49.576;10.880;2022-12-17T17:34:07;51.10;;;33.40;;
15022;SDS011;19850;49.576;10.880;2022-12-17T17:38:11;53.67;;;33.30;;
15022;SDS011;19850;49.576;10.880;2022-12-17T17:42:14;52.57;;;33.53;;
15022;SDS011;19850;49.576;10.880;2022-12-17T17:46:17;52.57;;;33.90;;
15022;SDS011;19850;49.576;10.880;2022-12-17T17:50:20;51.33;;;33.60;;
15022;SDS011;19850;49.576;10.880;2022-12-17T17:54:24;50.53;;;33.80;;
15022;SDS011;19850;49.576;10.880;2022-12-17T17:58:27;57.10;;;35.47;;
15022;SDS011;19850;49.576;10.880;2022-12-17T18:02:30;53.87;;;36.90;;
15022;SDS011;19850;49.576;10.880;2022-12-17T18:06:35;49.43;;;33.37;;
15022;SDS011;19850;49.576;10.880;2022-12-17T18:10:39;68.37;;;42.10;;
15022;SDS011;19850;49.576;10.880;2022-12-17T18:14:43;59.57;;;39.00;;
15022;SDS011;19850;49.576;10.880;2022-12-17T18:19:07;62.33;;;39.83;;
15022;SDS011;19850;49.576;10.880;2022-12-17T18:23:11;61.97;;;37.83;;
15022;SDS011;19850;49.576;10.880;2022-12-17T18:27:15;64.17;;;40.17;;
15022;SDS011;19850;49.576;10.880;2022-12-17T18:31:18;49.90;;;33.30;;
15022;SDS011;19850;49.576;10.880;2022-12-17T18:35:22;49.67;;;32.70;;
15022;SDS011;19850;49.576;10.880;2022-12-17T18:39:25;48.00;;;31.23;;
15022;SDS011;19850;49.576;10.880;2022-12-17T18:43:29;48.90;;;29.57;;
15022;SDS011;19850;49.576;10.880;2022-12-17T18:47:32;48.30;;;30.70;;
15022;SDS011;19850;49.576;10.880;2022-12-17T18:51:35;48.00;;;30.97;;
15022;SDS011;19850;49.576;10.880;2022-12-17T18:55:39;48.33;;;31.40;;
15022;SDS011;19850;49.576;10.880;2022-12-17T18:59:43;52.10;;;32.87;;
15022;SDS011;19850;49.576;10.880;2022-12-17T19:03:50;52.63;;;33.73;;
15022;SDS011;19850;49.576;10.880;2022-12-17T19:07:52;58.90;;;35.33;;
15022;SDS011;19850;49.576;10.880;2022-12-17T19:11:55;62.27;;;40.43;;
15022;SDS011;19850;49.576;10.880;2022-12-17T19:16:11;68.67;;;43.13;;
15022;SDS011;19850;49.576;10.880;2022-12-17T19:20:16;59.73;;;37.13;;
15022;SDS011;19850;49.576;10.880;2022-12-17T19:24:19;50.43;;;31.93;;
15022;SDS011;19850;49.576;10.880;2022-12-17T19:28:22;56.23;;;38.30;;
15022;SDS011;19850;49.576;10.880;2022-12-17T19:32:27;52.67;;;36.07;;
15022;SDS011;19850;49.576;10.880;2022-12-17T19:36:30;54.50;;;35.97;;
15022;SDS011;19850;49.576;10.880;2022-12-17T19:40:34;51.37;;;35.50;;
15022;SDS011;19850;49.576;10.880;2022-12-17T19:44:37;51.97;;;39.67;;
15022;SDS011;19850;49.576;10.880;2022-12-17T19:48:41;52.13;;;35.17;;
15022;SDS011;19850;49.576;10.880;2022-12-17T19:52:49;49.43;;;34.20;;
15022;SDS011;19850;49.576;10.880;2022-12-17T19:56:52;49.07;;;33.10;;
15022;SDS011;19850;49.576;10.880;2022-12-17T20:00:55;55.70;;;42.60;;
15022;SDS011;19850;49.576;10.880;2022-12-17T20:05:00;52.85;;;42.67;;
15022;SDS011;19850;49.576;10.880;2022-12-17T20:09:03;55.80;;;38.27;;
15022;SDS011;19850;49.576;10.880;2022-12-17T20:13:07;59.40;;;38.33;;
15022;SDS011;19850;49.576;10.880;2022-12-17T20:17:10;64.67;;;39.60;;
15022;SDS011;19850;49.576;10.880;2022-12-17T20:21:14;66.03;;;40.80;;
15022;SDS011;19850;49.576;10.880;2022-12-17T20:25:17;77.07;;;44.67;;
15022;SDS011;19850;49.576;10.880;2022-12-17T20:29:20;70.87;;;42.80;;
15022;SDS011;19850;49.576;10.880;2022-12-17T20:33:24;62.80;;;40.43;;
15022;SDS011;19850;49.576;10.880;2022-12-17T20:37:28;61.90;;;39.07;;
15022;SDS011;19850;49.576;10.880;2022-12-17T20:41:31;63.60;;;39.87;;
15022;SDS011;19850;49.576;10.880;2022-12-17T20:45:36;61.43;;;39.93;;
15022;SDS011;19850;49.576;10.880;2022-12-17T20:49:39;58.00;;;38.23;;
15022;SDS011;19850;49.576;10.880;2022-12-17T20:53:43;58.57;;;37.00;;
15022;SDS011;19850;49.576;10.880;2022-12-17T20:57:49;58.70;;;37.17;;
15022;SDS011;19850;49.576;10.880;2022-12-17T21:01:51;61.23;;;39.07;;
15022;SDS011;19850;49.576;10.880;2022-12-17T21:06:02;63.90;;;39.83;;
15022;SDS011;19850;49.576;10.880;2022-12-17T21:10:08;65.40;;;40.93;;
15022;SDS011;19850;49.576;10.880;2022-12-17T21:14:12;63.03;;;38.10;;
15022;SDS011;19850;49.576;10.880;2022-12-17T21:18:16;64.70;;;39.67;;
15022;SDS011;19850;49.576;10.880;2022-12-17T21:22:19;55.83;;;34.43;;
15022;SDS011;19850;49.576;10.880;2022-12-17T21:26:24;62.57;;;37.03;;
15022;SDS011;19850;49.576;10.880;2022-12-17T21:30:29;53.80;;;32.60;;
15022;SDS011;19850;49.576;10.880;2022-12-17T21:34:32;53.53;;;32.87;;
15022;SDS011;19850;49.576;10.880;2022-12-17T21:38:35;70.00;;;43.90;;
15022;SDS011;19850;49.576;10.880;2022-12-17T21:42:40;46.73;;;31.13;;
15022;SDS011;19850;49.576;10.880;2022-12-17T21:47:00;48.70;;;30.60;;
15022;SDS011;19850;49.576;10.880;2022-12-17T21:51:03;47.10;;;30.87;;
15022;SDS011;19850;49.576;10.880;2022-12-17T21:55:07;47.53;;;31.00;;
15022;SDS011;19850;49.576;10.880;2022-12-17T21:59:11;47.00;;;31.00;;
15022;SDS011;19850;49.576;10.880;2022-12-17T22:03:14;53.77;;;33.40;;
15022;SDS011;19850;49.576;10.880;2022-12-17T22:07:17;56.57;;;34.10;;
15022;SDS011;19850;49.576;10.880;2022-12-17T22:11:27;62.23;;;36.77;;
15022;SDS011;19850;49.576;10.880;2022-12-17T22:15:31;58.70;;;35.53;;
15022;SDS011;19850;49.576;10.880;2022-12-17T22:19:47;57.17;;;34.73;;
15022;SDS011;19850;49.576;10.880;2022-12-17T22:23:50;52.97;;;32.73;;
15022;SDS011;19850;49.576;10.880;2022-12-17T22:27:54;67.23;;;40.67;;
15022;SDS011;19850;49.576;10.880;2022-12-17T22:31:58;65.30;;;39.13;;
15022;SDS011;19850;49.576;10.880;2022-12-17T22:36:19;59.90;;;36.70;;
15022;SDS011;19850;49.576;10.880;2022-12-17T22:40:41;61.03;;;38.60;;
15022;SDS011;19850;49.576;10.880;2022-12-17T22:45:05;74.53;;;41.23;;
15022;SDS011;19850;49.576;10.880;2022-12-17T22:49:13;61.07;;;35.93;;
15022;SDS011;19850;49.576;10.880;2022-12-17T22:53:16;64.47;;;36.53;;
15022;SDS011;19850;49.576;10.880;2022-12-17T22:57:19;59.47;;;34.60;;
15022;SDS011;19850;49.576;10.880;2022-12-17T23:01:38;82.60;;;41.67;;
15022;SDS011;19850;49.576;10.880;2022-12-17T23:05:42;84.50;;;45.63;;
15022;SDS011;19850;49.576;10.880;2022-12-17T23:09:45;87.87;;;45.20;;
15022;SDS011;19850;49.576;10.880;2022-12-17T23:13:48;76.73;;;42.37;;
15022;SDS011;19850;49.576;10.880;2022-12-17T23:17:51;74.88;;;45.63;;
15022;SDS011;19850;49.576;10.880;2022-12-17T23:21:56;85.80;;;46.00;;
15022;SDS011;19850;49.576;10.880;2022-12-17T23:26:04;84.10;;;42.57;;
15022;SDS011;19850;49.576;10.880;2022-12-17T23:30:08;69.43;;;39.30;;
15022;SDS011;19850;49.576;10.880;2022-12-17T23:34:11;77.77;;;40.33;;
15022;SDS011;19850;49.576;10.880;2022-12-17T23:38:16;70.23;;;36.87;;
15022;SDS011;19850;49.576;10.880;2022-12-17T23:42:18;70.23;;;38.10;;
15022;SDS011;19850;49.576;10.880;2022-12-17T23:46:21;68.37;;;37.03;;
15022;SDS011;19850;49.576;10.880;2022-12-17T23:50:25;64.13;;;35.23;;
15022;SDS011;19850;49.576;10.880;2022-12-17T23:54:30;74.13;;;38.00;;
15022;SDS011;19850;49.576;10.880;2022-12-17T23:58:32;79.67;;;39.93;;
